createdAt,value
2022-08-10T00:02:17.261Z,20.60
2022-08-10T00:04:47.543Z,20.70
2022-08-10T00:07:18.231Z,20.50
2022-08-10T00:09:50.972Z,20.30
2022-08-10T00:12:30.937Z,20.20
2022-08-10T00:15:52.761Z,20.00
2022-08-10T00:18:11.847Z,19.90
2022-08-10T00:21:02.114Z,19.80
2022-08-10T00:23:32.266Z,19.60
2022-08-10T00:26:03.209Z,19.50
2022-08-10T00:28:36.710Z,19.30
2022-08-10T00:31:06.889Z,19.20
2022-08-10T00:33:39.846Z,19.20
2022-08-10T00:36:13.274Z,19.20
2022-08-10T00:38:43.483Z,19.20
2022-08-10T00:41:13.760Z,19.00
2022-08-10T00:43:55.300Z,18.90
2022-08-10T00:46:25.542Z,18.70
2022-08-10T00:49:00.357Z,18.80
2022-08-10T00:51:48.115Z,18.70
2022-08-10T00:54:24.446Z,18.70
2022-08-10T00:57:15.753Z,18.50
2022-08-10T00:59:59.642Z,18.40
2022-08-10T01:02:33.297Z,18.40
2022-08-10T01:05:09.053Z,18.50
2022-08-10T01:08:18.187Z,18.50
2022-08-10T01:11:02.397Z,18.50
2022-08-10T01:13:41.445Z,18.50
2022-08-10T01:16:28.548Z,18.50
2022-08-10T01:19:10.789Z,18.30
2022-08-10T01:22:31.637Z,18.40
2022-08-10T01:26:12.112Z,18.40
2022-08-10T01:28:48.255Z,18.50
2022-08-10T01:31:33.464Z,18.50
2022-08-10T01:34:13.148Z,18.30
2022-08-10T01:36:52.679Z,18.10
2022-08-10T01:39:27.990Z,18.10
2022-08-10T01:42:03.147Z,18.00
2022-08-10T01:44:39.208Z,18.00
2022-08-10T01:47:34.076Z,18.00
2022-08-10T01:50:15.535Z,18.10
2022-08-10T01:52:51.477Z,18.00
2022-08-10T01:55:25.764Z,18.00
2022-08-10T01:57:59.607Z,18.00
2022-08-10T02:00:33.195Z,17.90
2022-08-10T02:03:11.687Z,17.90
2022-08-10T02:05:47.907Z,17.90
2022-08-10T02:08:22.204Z,17.90
2022-08-10T02:10:55.231Z,17.80
2022-08-10T02:13:29.326Z,17.90
2022-08-10T02:16:03.967Z,17.90
2022-08-10T02:18:39.269Z,17.90
2022-08-10T02:21:11.986Z,17.90
2022-08-10T02:23:45.115Z,17.90
2022-08-10T02:26:31.190Z,17.90
2022-08-10T02:29:05.251Z,17.80
2022-08-10T02:31:40.898Z,17.70
2022-08-10T02:34:18.623Z,17.60
2022-08-10T02:36:56.845Z,17.60
2022-08-10T02:39:29.064Z,17.60
2022-08-10T02:45:14.852Z,17.50
2022-08-10T02:45:20.984Z,17.60
2022-08-10T02:48:04.314Z,17.50
2022-08-10T02:50:44.567Z,17.50
2022-08-10T02:53:56.688Z,17.50
2022-08-10T02:56:25.721Z,17.30
2022-08-10T02:59:02.604Z,17.30
2022-08-10T03:01:44.188Z,17.50
2022-08-10T03:04:55.976Z,17.50
2022-08-10T03:07:44.649Z,17.50
2022-08-10T03:10:23.210Z,17.40
2022-08-10T03:12:58.284Z,17.30
2022-08-10T03:15:31.386Z,17.20
2022-08-10T03:18:03.691Z,17.20
2022-08-10T03:20:41.704Z,17.20
2022-08-10T03:23:21.695Z,17.10
2022-08-10T03:25:58.243Z,17.00
2022-08-10T03:28:35.011Z,17.00
2022-08-10T03:31:05.603Z,16.90
2022-08-10T03:33:40.475Z,16.80
2022-08-10T03:36:40.061Z,16.70
2022-08-10T03:39:07.083Z,16.70
2022-08-10T03:41:41.458Z,16.80
2022-08-10T03:44:26.655Z,16.80
2022-08-10T03:46:59.987Z,16.80
2022-08-10T03:49:32.753Z,16.70
2022-08-10T03:52:06.470Z,16.60
2022-08-10T03:54:40.739Z,16.60
2022-08-10T03:57:11.602Z,16.60
2022-08-10T03:59:42.567Z,16.60
2022-08-10T04:02:45.593Z,16.60
2022-08-10T04:05:12.223Z,16.70
2022-08-10T04:07:42.963Z,16.60
2022-08-10T04:10:19.508Z,16.60
2022-08-10T04:12:49.787Z,16.60
2022-08-10T04:15:21.414Z,16.50
2022-08-10T04:17:56.889Z,16.50
2022-08-10T04:20:43.517Z,16.50
2022-08-10T04:23:21.589Z,16.50
2022-08-10T04:25:56.066Z,16.60
2022-08-10T04:28:27.906Z,16.60
2022-08-10T04:31:02.035Z,16.60
2022-08-10T04:33:36.562Z,16.70
2022-08-10T04:36:13.362Z,16.80
2022-08-10T04:38:45.600Z,16.70
2022-08-10T04:41:19.722Z,16.70
2022-08-10T04:43:50.436Z,16.60
2022-08-10T04:46:56.456Z,16.60
2022-08-10T04:49:55.300Z,16.60
2022-08-10T04:52:02.757Z,16.60
2022-08-10T04:54:33.095Z,16.50
2022-08-10T04:57:06.529Z,16.50
2022-08-10T04:59:36.930Z,16.50
2022-08-10T05:02:28.592Z,16.50
2022-08-10T05:04:57.554Z,16.50
2022-08-10T05:07:43.377Z,16.50
2022-08-10T05:10:23.884Z,16.50
2022-08-10T05:12:56.714Z,16.60
2022-08-10T05:15:27.554Z,16.70
2022-08-10T05:18:06.824Z,16.70
2022-08-10T05:20:40.466Z,16.70
2022-08-10T05:23:10.617Z,16.80
2022-08-10T05:25:40.861Z,16.80
2022-08-10T05:28:16.371Z,16.90
2022-08-10T05:30:46.611Z,17.00
2022-08-10T05:33:16.879Z,17.10
2022-08-10T05:35:57.307Z,17.20
2022-08-10T05:38:49.686Z,17.30
2022-08-10T05:41:21.071Z,17.40
2022-08-10T05:43:54.047Z,17.50
2022-08-10T05:46:24.434Z,17.60
2022-08-10T05:49:00.979Z,17.60
2022-08-10T05:51:38.028Z,17.80
2022-08-10T05:54:14.998Z,18.00
2022-08-10T05:56:56.684Z,18.30
2022-08-10T06:00:30.827Z,18.50
2022-08-10T06:02:41.584Z,18.50
2022-08-10T06:05:16.346Z,19.50
2022-08-10T06:07:53.610Z,21.60
2022-08-10T06:10:31.502Z,23.20
2022-08-10T06:13:26.862Z,24.30
2022-08-10T06:16:09.695Z,25.50
2022-08-10T06:18:44.939Z,26.40
2022-08-10T06:21:16.855Z,27.50
2022-08-10T06:23:55.867Z,28.00
2022-08-10T06:26:31.876Z,28.60
2022-08-10T06:29:23.020Z,29.20
2022-08-10T06:31:57.711Z,30.50
2022-08-10T06:34:36.595Z,31.30
2022-08-10T06:37:10.242Z,30.50
2022-08-10T06:39:40.992Z,30.70
2022-08-10T06:42:18.722Z,31.30
2022-08-10T06:45:06.155Z,30.70
2022-08-10T06:47:54.181Z,31.20
2022-08-10T06:50:44.515Z,31.00
2022-08-10T06:53:20.732Z,29.90
2022-08-10T06:55:58.611Z,29.90
2022-08-10T06:58:39.464Z,30.60
2022-08-10T07:01:16.010Z,30.80
2022-08-10T07:04:05.557Z,31.90
2022-08-10T07:06:39.127Z,33.10
2022-08-10T07:09:15.089Z,32.60
2022-08-10T07:11:49.482Z,31.20
2022-08-10T07:14:22.368Z,30.60
2022-08-10T07:16:54.981Z,30.90
2022-08-10T07:19:29.725Z,31.30
2022-08-10T07:22:01.359Z,31.10
2022-08-10T07:24:33.407Z,31.30
2022-08-10T07:27:06.771Z,32.50
2022-08-10T07:29:54.376Z,33.70
2022-08-10T07:32:27.237Z,33.00
2022-08-10T07:35:05.598Z,33.10
2022-08-10T07:37:41.188Z,33.90
2022-08-10T07:40:17.756Z,33.80
2022-08-10T07:42:51.712Z,33.90
2022-08-10T07:45:22.204Z,32.90
2022-08-10T07:48:07.541Z,33.30
2022-08-10T07:50:43.994Z,34.00
2022-08-10T07:53:22.077Z,34.90
2022-08-10T07:56:04.417Z,35.00
2022-08-10T07:58:51.739Z,37.80
2022-08-10T08:01:34.484Z,38.10
2022-08-10T08:04:11.107Z,36.50
2022-08-10T08:06:47.109Z,35.70
2022-08-10T08:09:23.336Z,36.10
2022-08-10T08:11:55.819Z,36.60
2022-08-10T08:14:28.507Z,38.20
2022-08-10T08:17:01.327Z,37.10
2022-08-10T08:19:37.795Z,36.90
2022-08-10T08:24:08.091Z,37.60
2022-08-10T08:25:14.329Z,38.90
2022-08-10T08:27:52.742Z,38.90
2022-08-10T08:30:27.702Z,38.20
2022-08-10T08:33:01.901Z,38.50
2022-08-10T08:35:35.099Z,39.20
2022-08-10T08:38:33.238Z,37.60
2022-08-10T08:41:30.953Z,39.20
2022-08-10T08:44:18.289Z,40.30
2022-08-10T08:48:03.021Z,39.20
2022-08-10T08:50:27.679Z,39.50
2022-08-10T08:54:01.218Z,39.20
2022-08-10T08:56:30.578Z,39.30
2022-08-10T08:59:33.772Z,39.70
2022-08-10T09:02:30.792Z,40.60
2022-08-10T09:05:26.039Z,38.20
2022-08-10T09:08:30.035Z,37.20
2022-08-10T09:11:10.418Z,38.80
2022-08-10T09:13:49.711Z,39.30
2022-08-10T09:16:32.421Z,39.30
2022-08-10T09:19:19.596Z,40.00
2022-08-10T09:22:24.800Z,39.50
2022-08-10T09:25:12.002Z,40.80
2022-08-10T09:27:49.581Z,40.70
2022-08-10T09:30:33.063Z,39.70
2022-08-10T09:36:25.571Z,39.70
2022-08-10T09:36:33.700Z,39.20
2022-08-10T09:40:06.894Z,38.80
2022-08-10T09:42:31.483Z,38.30
2022-08-10T09:45:26.775Z,39.10
2022-08-10T09:48:13.561Z,40.50
2022-08-10T09:51:43.580Z,40.10
2022-08-10T09:54:09.706Z,40.50
2022-08-10T09:56:52.792Z,40.10
2022-08-10T10:00:00.837Z,39.70
2022-08-10T10:02:41.826Z,40.60
2022-08-10T10:05:28.141Z,39.80
2022-08-10T10:08:12.103Z,39.70
2022-08-10T10:10:55.869Z,39.60
2022-08-10T10:14:01.961Z,39.80
2022-08-10T10:16:49.606Z,39.30
2022-08-10T10:19:35.213Z,39.30
2022-08-10T10:22:26.586Z,40.10
2022-08-10T10:25:19.610Z,40.20
2022-08-10T10:28:06.074Z,39.10
2022-08-10T10:30:54.296Z,38.70
2022-08-10T10:33:46.458Z,39.30
2022-08-10T10:36:26.574Z,39.60
2022-08-10T10:38:58.483Z,40.30
2022-08-10T10:42:04.081Z,39.40
2022-08-10T10:44:45.027Z,39.30
2022-08-10T10:47:38.743Z,39.40
2022-08-10T10:50:18.399Z,38.70
2022-08-10T10:53:05.319Z,38.00
2022-08-10T10:56:14.274Z,37.50
2022-08-10T10:59:53.434Z,37.50
2022-08-10T11:02:16.904Z,38.10
2022-08-10T11:05:00.966Z,39.20
2022-08-10T11:07:53.239Z,39.10
2022-08-10T11:10:32.977Z,39.30
2022-08-10T11:14:25.271Z,39.20
2022-08-10T11:16:28.764Z,38.60
2022-08-10T11:19:10.634Z,37.90
2022-08-10T11:21:57.614Z,36.90
2022-08-10T11:24:47.172Z,35.70
2022-08-10T11:27:36.899Z,34.70
2022-08-10T11:30:11.925Z,34.20
2022-08-10T11:33:03.566Z,33.90
2022-08-10T11:35:44.033Z,33.90
2022-08-10T11:38:37.023Z,33.50
2022-08-10T11:42:09.551Z,33.70
2022-08-10T11:44:34.893Z,33.80
2022-08-10T11:47:14.192Z,34.00
2022-08-10T11:50:00.269Z,34.10
2022-08-10T11:52:43.807Z,34.10
2022-08-10T11:55:23.368Z,33.90
2022-08-10T11:58:24.026Z,33.50
2022-08-10T12:00:53.522Z,33.20
2022-08-10T12:03:25.411Z,33.20
2022-08-10T12:05:57.588Z,33.50
2022-08-10T12:10:06.363Z,33.50
2022-08-10T12:11:29.227Z,33.60
2022-08-10T12:14:22.335Z,33.50
2022-08-10T12:17:03.623Z,33.50
2022-08-10T12:19:58.996Z,33.50
2022-08-10T12:22:44.141Z,33.30
2022-08-10T12:25:56.952Z,33.30
2022-08-10T12:28:49.166Z,33.40
2022-08-10T12:31:27.893Z,33.10
2022-08-10T12:34:17.403Z,32.70
2022-08-10T12:37:00.529Z,32.70
2022-08-10T12:39:42.411Z,32.80
2022-08-10T12:42:39.015Z,32.90
2022-08-10T12:45:23.049Z,32.80
2022-08-10T12:48:06.837Z,32.90
2022-08-10T12:50:44.687Z,32.90
2022-08-10T12:53:36.152Z,32.80
2022-08-10T12:56:08.771Z,32.80
2022-08-10T12:58:59.928Z,32.70
2022-08-10T13:02:06.441Z,32.60
2022-08-10T13:04:36.335Z,32.70
2022-08-10T13:07:09.495Z,32.80
2022-08-10T13:09:55.569Z,32.90
2022-08-10T13:12:38.274Z,32.90
2022-08-10T13:15:45.634Z,32.60
2022-08-10T13:18:19.048Z,32.50
2022-08-10T13:21:02.660Z,32.60
2022-08-10T13:23:36.975Z,32.50
2022-08-10T13:26:11.492Z,32.60
2022-08-10T13:28:49.881Z,32.40
2022-08-10T13:32:09.177Z,32.10
2022-08-10T13:34:42.924Z,32.10
2022-08-10T13:37:21.881Z,32.20
2022-08-10T13:39:59.883Z,32.40
2022-08-10T13:42:36.693Z,32.50
2022-08-10T13:45:20.314Z,32.70
2022-08-10T13:48:09.274Z,32.70
2022-08-10T13:50:43.572Z,32.90
2022-08-10T13:53:19.643Z,32.90
2022-08-10T13:55:57.193Z,32.70
2022-08-10T13:58:33.282Z,32.70
2022-08-10T14:01:26.594Z,32.70
2022-08-10T14:04:02.383Z,32.50
2022-08-10T14:06:33.271Z,32.40
2022-08-10T14:09:11.109Z,32.30
2022-08-10T14:11:44.693Z,32.40
2022-08-10T14:14:22.538Z,32.40
2022-08-10T14:16:54.213Z,32.50
2022-08-10T14:19:29.265Z,32.60
2022-08-10T14:22:00.352Z,32.60
2022-08-10T14:24:36.881Z,32.60
2022-08-10T14:27:12.967Z,32.60
2022-08-10T14:29:48.149Z,32.60
2022-08-10T14:32:24.056Z,32.60
2022-08-10T14:36:19.326Z,32.60
2022-08-10T14:38:00.238Z,32.60
2022-08-10T14:40:49.780Z,32.40
2022-08-10T14:43:28.138Z,32.40
2022-08-10T14:46:07.900Z,32.50
2022-08-10T14:48:44.369Z,32.40
2022-08-10T14:51:17.934Z,32.30
2022-08-10T14:53:58.599Z,32.40
2022-08-10T14:56:35.655Z,32.40
2022-08-10T14:59:10.239Z,32.40
2022-08-10T15:02:37.897Z,32.20
2022-08-10T15:04:39.084Z,32.20
2022-08-10T15:07:22.250Z,32.20
2022-08-10T15:09:59.549Z,32.20
2022-08-10T15:12:40.124Z,32.20
2022-08-10T15:15:28.057Z,32.30
2022-08-10T15:18:02.699Z,32.40
2022-08-10T15:20:34.719Z,32.40
2022-08-10T15:23:30.531Z,32.40
2022-08-10T15:26:10.796Z,32.40
2022-08-10T15:29:24.133Z,32.40
2022-08-10T15:32:02.620Z,32.40
2022-08-10T15:34:45.564Z,32.40
2022-08-10T15:37:47.098Z,32.30
2022-08-10T15:40:25.262Z,32.20
2022-08-10T15:43:20.682Z,32.20
2022-08-10T15:46:04.083Z,32.20
2022-08-10T15:48:41.769Z,32.30
2022-08-10T15:51:21.917Z,32.40
2022-08-10T15:54:12.033Z,32.40
2022-08-10T15:56:46.714Z,32.30
2022-08-10T15:59:21.392Z,32.40
2022-08-10T16:02:12.741Z,32.20
2022-08-10T16:04:53.363Z,32.20
2022-08-10T16:07:45.957Z,32.10
2022-08-10T16:10:28.036Z,32.10
2022-08-10T16:13:50.746Z,32.10
2022-08-10T16:16:01.846Z,32.10
2022-08-10T16:18:37.466Z,32.10
2022-08-10T16:21:11.487Z,31.90
2022-08-10T16:24:14.442Z,32.00
2022-08-10T16:26:40.266Z,32.00
2022-08-10T16:29:16.334Z,31.90
2022-08-10T16:31:54.401Z,31.90
2022-08-10T16:34:32.166Z,31.90
2022-08-10T16:37:08.869Z,31.90
2022-08-10T16:39:57.710Z,31.90
2022-08-10T16:42:33.457Z,32.00
2022-08-10T16:45:07.677Z,31.90
2022-08-10T16:47:40.712Z,31.80
2022-08-10T16:50:18.674Z,31.70
2022-08-10T16:52:53.592Z,31.60
2022-08-10T16:55:48.264Z,31.50
2022-08-10T16:58:20.632Z,31.50
2022-08-10T17:00:52.271Z,31.40
2022-08-10T17:04:07.124Z,31.40
2022-08-10T17:06:30.640Z,31.20
2022-08-10T17:09:03.591Z,31.20
2022-08-10T17:11:36.152Z,31.20
2022-08-10T17:14:12.055Z,31.10
2022-08-10T17:16:45.183Z,31.10
2022-08-10T17:19:17.689Z,31.10
2022-08-10T17:21:53.878Z,31.00
2022-08-10T17:24:29.347Z,31.00
2022-08-10T17:28:04.318Z,30.90
2022-08-10T17:30:04.778Z,30.80
2022-08-10T17:32:46.613Z,30.70
2022-08-10T17:35:23.705Z,30.60
2022-08-10T17:38:03.410Z,30.60
2022-08-10T17:40:35.672Z,30.60
2022-08-10T17:43:06.110Z,30.50
2022-08-10T17:45:48.878Z,30.50
2022-08-10T17:48:21.665Z,30.40
2022-08-10T17:50:55.761Z,30.30
2022-08-10T17:53:34.975Z,30.20
2022-08-10T17:56:10.200Z,30.10
2022-08-10T17:58:43.796Z,30.10
2022-08-10T18:01:41.717Z,30.00
2022-08-10T18:04:15.230Z,29.80
2022-08-10T18:06:46.724Z,29.70
2022-08-10T18:09:32.277Z,29.60
2022-08-10T18:12:10.360Z,29.50
2022-08-10T18:14:51.035Z,29.30
2022-08-10T18:17:23.923Z,29.30
2022-08-10T18:19:56.558Z,29.20
2022-08-10T18:22:27.692Z,29.10
2022-08-10T18:25:02.822Z,29.00
2022-08-10T18:28:01.383Z,28.80
2022-08-10T18:30:26.317Z,28.70
2022-08-10T18:32:59.150Z,28.60
2022-08-10T18:35:34.721Z,28.50
2022-08-10T18:38:05.745Z,28.40
2022-08-10T18:40:42.861Z,28.30
2022-08-10T18:44:05.752Z,28.30
2022-08-10T18:46:06.253Z,28.20
2022-08-10T18:48:43.143Z,28.10
2022-08-10T18:51:14.899Z,28.00
2022-08-10T18:53:57.832Z,27.90
2022-08-10T18:56:42.078Z,27.80
2022-08-10T18:59:28.594Z,27.70
2022-08-10T19:02:11.434Z,27.60
2022-08-10T19:04:57.885Z,27.60
2022-08-10T19:07:51.302Z,27.50
2022-08-10T19:10:42.693Z,27.40
2022-08-10T19:13:25.019Z,27.30
2022-08-10T19:16:06.205Z,27.20
2022-08-10T19:18:45.066Z,27.10
2022-08-10T19:21:29.890Z,27.00
2022-08-10T19:24:14.686Z,26.90
2022-08-10T19:26:52.235Z,26.90
2022-08-10T19:30:11.077Z,26.90
2022-08-10T19:32:44.416Z,27.00
2022-08-10T19:36:03.479Z,26.90
2022-08-10T19:38:50.315Z,26.70
2022-08-10T19:41:44.407Z,26.50
2022-08-10T19:44:38.309Z,26.40
2022-08-10T19:47:23.201Z,26.30
2022-08-10T19:50:03.422Z,26.20
2022-08-10T19:52:45.009Z,26.20
2022-08-10T19:55:29.109Z,26.10
2022-08-10T19:58:07.644Z,26.00
2022-08-10T20:00:49.633Z,25.90
2022-08-10T20:03:38.574Z,25.80
2022-08-10T20:06:20.565Z,25.80
2022-08-10T20:08:59.459Z,25.70
2022-08-10T20:11:45.016Z,25.60
2022-08-10T20:14:25.104Z,25.60
2022-08-10T20:17:05.993Z,25.50
2022-08-10T20:19:52.954Z,25.50
2022-08-10T20:22:35.329Z,25.50
2022-08-10T20:25:15.565Z,25.40
2022-08-10T20:27:59.879Z,25.30
2022-08-10T20:30:35.335Z,25.30
2022-08-10T20:33:14.928Z,25.20
2022-08-10T20:35:53.396Z,25.20
2022-08-10T20:38:31.030Z,25.10
2022-08-10T20:41:18.106Z,25.10
2022-08-10T20:44:06.861Z,25.00
2022-08-10T20:46:44.297Z,25.00
2022-08-10T20:49:31.535Z,25.00
2022-08-10T20:52:17.651Z,24.90
2022-08-10T20:54:56.898Z,24.80
2022-08-10T20:58:04.523Z,24.80
2022-08-10T21:00:52.186Z,24.70
2022-08-10T21:03:44.785Z,24.70
2022-08-10T21:06:44.524Z,24.60
2022-08-10T21:09:49.496Z,24.50
2022-08-10T21:12:51.292Z,24.50
2022-08-10T21:15:48.778Z,24.40
2022-08-10T21:18:57.128Z,24.40
2022-08-10T21:22:01.365Z,24.40
2022-08-10T21:24:40.913Z,24.40
2022-08-10T21:27:48.520Z,24.40
2022-08-10T21:30:26.409Z,24.30
2022-08-10T21:33:06.663Z,24.30
2022-08-10T21:35:42.330Z,24.20
2022-08-10T21:38:28.494Z,24.10
2022-08-10T21:41:56.548Z,24.00
2022-08-10T21:45:01.149Z,23.90
2022-08-10T21:48:17.051Z,23.70
2022-08-10T21:51:09.018Z,23.70
2022-08-10T21:54:10.766Z,23.50
2022-08-10T21:57:04.922Z,23.30
2022-08-10T22:00:02.327Z,23.20
2022-08-10T22:02:50.786Z,23.10
2022-08-10T22:05:42.399Z,23.10
2022-08-10T22:08:31.093Z,23.00
2022-08-10T22:11:21.927Z,23.00
2022-08-10T22:14:09.550Z,22.90
2022-08-10T22:17:04.782Z,22.80
2022-08-10T22:19:52.929Z,22.80
2022-08-10T22:22:56.348Z,22.70
2022-08-10T22:26:05.064Z,22.60
2022-08-10T22:29:01.129Z,22.50
2022-08-10T22:32:07.744Z,22.40
2022-08-10T22:35:31.252Z,22.30
2022-08-10T22:38:33.503Z,22.30
2022-08-10T22:41:41.576Z,22.30
2022-08-10T22:44:31.362Z,22.10
2022-08-10T22:47:16.083Z,22.00
2022-08-10T22:49:43.667Z,21.90
2022-08-10T22:52:22.817Z,21.80
2022-08-10T22:55:18.602Z,21.70
2022-08-10T22:58:02.216Z,21.50
2022-08-10T23:00:36.110Z,21.50
2022-08-10T23:03:21.844Z,21.70
2022-08-10T23:05:59.494Z,21.70
2022-08-10T23:08:36.670Z,21.40
2022-08-10T23:11:11.287Z,21.20
2022-08-10T23:13:48.782Z,21.10
2022-08-10T23:16:39.523Z,21.00
2022-08-10T23:19:31.610Z,20.90
2022-08-10T23:22:11.702Z,20.80
2022-08-10T23:24:50.628Z,20.80
2022-08-10T23:27:37.519Z,20.80
2022-08-10T23:30:18.081Z,20.80
2022-08-10T23:33:01.682Z,20.80
2022-08-10T23:36:27.743Z,21.00
2022-08-10T23:38:57.181Z,21.00
2022-08-10T23:41:43.602Z,21.00
2022-08-10T23:44:21.031Z,20.80
2022-08-10T23:46:53.773Z,20.50
2022-08-10T23:49:37.822Z,20.30
2022-08-10T23:52:19.854Z,20.30
2022-08-10T23:54:56.780Z,20.10
2022-08-10T23:57:32.318Z,20.00
